createdAt,value
2022-12-15T00:02:03.567Z,18.58
2022-12-15T00:04:53.980Z,17.77
2022-12-15T00:07:45.832Z,17.98
2022-12-15T00:10:36.775Z,18.40
2022-12-15T00:13:29.993Z,18.48
2022-12-15T00:16:20.967Z,19.13
2022-12-15T00:19:11.223Z,18.30
2022-12-15T00:22:01.542Z,19.88
2022-12-15T00:24:53.641Z,19.27
2022-12-15T00:27:44.279Z,18.88
2022-12-15T00:30:35.159Z,18.73
2022-12-15T00:33:28.339Z,17.90
2022-12-15T00:36:19.064Z,19.27
2022-12-15T00:38:51.062Z,19.05
2022-12-15T00:41:24.452Z,19.65
2022-12-15T00:43:56.406Z,19.20
2022-12-15T00:46:46.880Z,20.73
2022-12-15T00:49:37.547Z,18.38
2022-12-15T00:52:28.282Z,19.25
2022-12-15T00:55:19.041Z,19.75
2022-12-15T00:58:11.875Z,19.67
2022-12-15T01:01:02.226Z,19.77
2022-12-15T01:03:53.166Z,19.88
2022-12-15T01:06:44.093Z,19.95
2022-12-15T01:09:34.292Z,20.25
2022-12-15T01:12:25.063Z,18.05
2022-12-15T01:15:16.946Z,19.75
2022-12-15T01:18:07.180Z,19.13
2022-12-15T01:20:39.615Z,20.38
2022-12-15T01:23:11.731Z,20.45
2022-12-15T01:25:43.655Z,20.17
2022-12-15T01:28:22.254Z,20.13
2022-12-15T01:30:55.829Z,18.85
2022-12-15T01:33:28.037Z,19.38
2022-12-15T01:36:01.602Z,21.63
2022-12-15T01:38:33.604Z,20.45
2022-12-15T01:41:09.491Z,19.33
2022-12-15T01:43:41.655Z,19.25
2022-12-15T01:46:18.200Z,21.65
2022-12-15T01:48:55.117Z,19.63
2022-12-15T01:51:32.426Z,19.33
2022-12-15T01:54:08.022Z,20.35
2022-12-15T01:56:43.543Z,18.77
2022-12-15T01:59:20.791Z,19.65
2022-12-15T02:01:54.170Z,18.92
2022-12-15T02:04:26.462Z,19.20
2022-12-15T02:06:58.338Z,18.25
2022-12-15T02:09:30.774Z,19.77
2022-12-15T02:12:10.203Z,20.92
2022-12-15T02:15:09.413Z,19.95
2022-12-15T02:17:54.855Z,22.63
2022-12-15T02:20:40.784Z,20.77
2022-12-15T02:23:45.963Z,20.27
2022-12-15T02:26:43.944Z,20.60
2022-12-15T02:29:35.246Z,21.95
2022-12-15T02:32:11.233Z,19.40
2022-12-15T02:34:47.906Z,18.23
2022-12-15T02:37:25.116Z,19.02
2022-12-15T02:39:57.007Z,18.75
2022-12-15T02:42:30.398Z,19.40
2022-12-15T02:45:05.985Z,19.48
2022-12-15T02:47:46.211Z,19.45
2022-12-15T02:50:38.362Z,19.70
2022-12-15T02:53:21.626Z,19.40
2022-12-15T02:56:00.339Z,19.13
2022-12-15T02:58:40.168Z,18.20
2022-12-15T03:01:17.457Z,16.70
2022-12-15T03:03:52.019Z,15.38
2022-12-15T03:06:25.476Z,18.35
2022-12-15T03:08:57.441Z,18.05
2022-12-15T03:11:29.430Z,18.20
2022-12-15T03:14:02.772Z,16.40
2022-12-15T03:16:34.715Z,17.10
2022-12-15T03:19:08.065Z,18.75
2022-12-15T03:21:40.001Z,19.15
2022-12-15T03:24:12.129Z,18.88
2022-12-15T03:26:44.034Z,16.95
2022-12-15T03:29:16.679Z,15.70
2022-12-15T03:31:49.975Z,16.58
2022-12-15T03:34:23.702Z,17.23
2022-12-15T03:36:55.649Z,16.70
2022-12-15T03:39:27.940Z,17.23
2022-12-15T03:41:59.889Z,17.95
2022-12-15T03:44:31.828Z,18.60
2022-12-15T03:47:04.106Z,15.18
2022-12-15T03:49:37.496Z,17.55
2022-12-15T03:52:09.394Z,17.35
2022-12-15T03:54:41.456Z,16.48
2022-12-15T03:57:13.355Z,17.92
2022-12-15T03:59:45.266Z,15.68
2022-12-15T04:02:17.356Z,15.70
2022-12-15T04:04:50.983Z,17.08
2022-12-15T04:07:22.870Z,18.00
2022-12-15T04:09:54.803Z,16.30
2022-12-15T04:12:26.709Z,18.10
2022-12-15T04:14:58.653Z,17.45
2022-12-15T04:17:30.542Z,18.10
2022-12-15T04:20:11.347Z,16.20
2022-12-15T04:22:45.269Z,18.23
2022-12-15T04:25:37.297Z,17.80
2022-12-15T04:28:31.182Z,18.30
2022-12-15T04:31:26.270Z,18.05
2022-12-15T04:34:19.903Z,18.70
2022-12-15T04:37:12.861Z,16.88
2022-12-15T04:40:07.490Z,18.33
2022-12-15T04:43:01.058Z,16.52
2022-12-15T04:45:51.853Z,17.63
2022-12-15T04:48:42.144Z,15.85
2022-12-15T04:51:32.563Z,15.65
2022-12-15T04:54:24.408Z,16.85
2022-12-15T04:57:14.997Z,16.80
2022-12-15T05:00:05.625Z,16.13
2022-12-15T05:02:55.933Z,16.33
2022-12-15T05:05:46.284Z,16.23
2022-12-15T05:08:37.095Z,17.65
2022-12-15T05:11:29.194Z,14.82
2022-12-15T05:14:19.911Z,18.02
2022-12-15T05:17:10.717Z,20.15
2022-12-15T05:20:01.015Z,15.27
2022-12-15T05:22:51.550Z,24.40
2022-12-15T05:25:41.846Z,15.52
2022-12-15T05:28:33.707Z,18.23
2022-12-15T05:31:25.388Z,19.65
2022-12-15T05:34:04.475Z,15.38
2022-12-15T05:36:37.263Z,14.90
2022-12-15T05:39:09.383Z,20.75
2022-12-15T05:41:42.071Z,16.70
2022-12-15T05:44:15.514Z,20.73
2022-12-15T05:46:47.844Z,19.90
2022-12-15T05:49:20.206Z,21.08
2022-12-15T05:51:52.145Z,22.58
2022-12-15T05:54:24.133Z,23.40
2022-12-15T05:56:56.051Z,19.88
2022-12-15T05:59:29.341Z,18.13
2022-12-15T06:02:01.315Z,18.13
2022-12-15T06:04:33.302Z,18.83
2022-12-15T06:07:05.302Z,19.33
2022-12-15T06:09:37.248Z,20.10
2022-12-15T06:12:09.131Z,19.80
2022-12-15T06:14:42.543Z,19.38
2022-12-15T06:17:14.455Z,19.20
2022-12-15T06:19:46.481Z,19.35
2022-12-15T06:22:20.417Z,18.33
2022-12-15T06:24:54.258Z,17.38
2022-12-15T06:27:26.786Z,16.67
2022-12-15T06:30:00.169Z,18.05
2022-12-15T06:32:34.626Z,19.38
2022-12-15T06:35:07.527Z,19.30
2022-12-15T06:37:39.579Z,21.05
2022-12-15T06:40:11.995Z,18.23
2022-12-15T06:42:43.905Z,22.60
2022-12-15T06:45:17.263Z,19.38
2022-12-15T06:47:49.231Z,20.00
2022-12-15T06:50:21.296Z,20.17
2022-12-15T06:52:53.231Z,22.17
2022-12-15T06:55:25.248Z,23.58
2022-12-15T06:57:57.659Z,25.23
2022-12-15T07:00:31.266Z,24.17
2022-12-15T07:03:03.751Z,25.92
2022-12-15T07:05:35.967Z,31.77
2022-12-15T07:08:08.798Z,21.70
2022-12-15T07:10:41.330Z,20.38
2022-12-15T07:13:14.015Z,22.23
2022-12-15T07:15:50.147Z,22.83
2022-12-15T07:18:22.152Z,18.80
2022-12-15T07:20:54.185Z,17.30
2022-12-15T07:23:52.741Z,25.38
2022-12-15T07:26:18.064Z,25.17
2022-12-15T07:28:50.098Z,24.70
2022-12-15T07:31:23.871Z,21.80
2022-12-15T07:33:57.384Z,25.27
2022-12-15T07:36:29.353Z,24.17
2022-12-15T07:39:02.120Z,24.02
2022-12-15T07:41:34.302Z,25.45
2022-12-15T07:44:06.305Z,25.60
2022-12-15T07:46:39.792Z,23.35
2022-12-15T07:49:11.797Z,22.55
2022-12-15T07:51:44.406Z,20.75
2022-12-15T07:54:16.621Z,20.67
2022-12-15T07:56:50.486Z,22.35
2022-12-15T07:59:23.729Z,19.48
2022-12-15T08:01:57.323Z,18.88
2022-12-15T08:04:29.433Z,20.05
2022-12-15T08:07:01.354Z,19.48
2022-12-15T08:09:33.370Z,20.13
2022-12-15T08:12:05.709Z,17.92
2022-12-15T08:14:37.659Z,19.70
2022-12-15T08:17:11.060Z,20.27
2022-12-15T08:19:43.683Z,19.80
2022-12-15T08:22:15.717Z,20.42
2022-12-15T08:24:48.679Z,19.83
2022-12-15T08:27:21.572Z,18.83
2022-12-15T08:29:54.757Z,23.35
2022-12-15T08:32:28.114Z,19.48
2022-12-15T08:35:00.095Z,25.10
2022-12-15T08:37:32.050Z,18.48
2022-12-15T08:40:04.909Z,18.23
2022-12-15T08:42:37.695Z,19.40
2022-12-15T08:45:12.297Z,20.33
2022-12-15T08:47:45.590Z,22.67
2022-12-15T08:50:18.505Z,27.20
2022-12-15T08:53:13.778Z,24.02
2022-12-15T08:55:42.549Z,24.88
2022-12-15T08:58:14.519Z,21.08
2022-12-15T09:00:46.556Z,17.35
2022-12-15T09:03:19.873Z,17.95
2022-12-15T09:05:51.750Z,16.42
2022-12-15T09:08:24.443Z,17.45
2022-12-15T09:10:57.367Z,18.35
2022-12-15T09:13:30.186Z,20.05
2022-12-15T09:16:10.316Z,20.88
2022-12-15T09:18:45.950Z,18.90
2022-12-15T09:21:22.277Z,19.95
2022-12-15T09:23:56.071Z,23.52
2022-12-15T09:26:29.793Z,28.48
2022-12-15T09:29:02.142Z,60.72
2022-12-15T09:31:37.561Z,22.35
2022-12-15T09:34:17.664Z,21.17
2022-12-15T09:36:49.695Z,24.58
2022-12-15T09:39:21.664Z,24.35
2022-12-15T09:41:57.314Z,23.55
2022-12-15T09:44:32.174Z,22.30
2022-12-15T09:47:13.381Z,22.40
2022-12-15T09:49:54.622Z,19.30
2022-12-15T09:52:29.225Z,19.17
2022-12-15T09:55:03.053Z,17.33
2022-12-15T09:57:40.432Z,18.40
2022-12-15T10:00:22.182Z,19.63
2022-12-15T10:03:17.143Z,17.77
2022-12-15T10:06:15.982Z,17.92
2022-12-15T10:08:53.890Z,18.05
2022-12-15T10:11:41.236Z,16.05
2022-12-15T10:14:23.328Z,15.40
2022-12-15T10:17:02.675Z,16.45
2022-12-15T10:19:41.869Z,19.63
2022-12-15T10:22:20.351Z,16.73
2022-12-15T10:25:10.166Z,17.40
2022-12-15T10:28:02.176Z,19.02
2022-12-15T10:30:35.365Z,18.98
2022-12-15T10:33:16.955Z,18.20
2022-12-15T10:35:50.339Z,15.68
2022-12-15T10:38:30.753Z,16.83
2022-12-15T10:41:04.634Z,15.82
2022-12-15T10:43:38.826Z,17.90
2022-12-15T10:46:15.803Z,15.85
2022-12-15T10:48:50.187Z,19.42
2022-12-15T10:51:26.679Z,15.77
2022-12-15T10:54:15.192Z,22.05
2022-12-15T10:56:50.355Z,14.70
2022-12-15T10:59:25.177Z,16.90
2022-12-15T11:02:23.044Z,15.95
2022-12-15T11:04:57.704Z,17.03
2022-12-15T11:07:36.509Z,15.75
2022-12-15T11:10:20.429Z,14.65
2022-12-15T11:13:00.624Z,15.38
2022-12-15T11:18:42.931Z,15.23
2022-12-15T11:21:22.403Z,14.38
2022-12-15T11:24:02.175Z,13.80
2022-12-15T11:26:49.308Z,16.02
2022-12-15T11:29:28.008Z,14.32
2022-12-15T11:34:53.013Z,13.27
2022-12-15T11:37:39.152Z,13.80
2022-12-15T11:40:31.695Z,14.23
2022-12-15T11:43:35.858Z,21.20
2022-12-15T11:46:21.124Z,14.80
2022-12-15T11:49:22.894Z,58.90
2022-12-15T11:52:03.208Z,21.70
2022-12-15T11:54:40.005Z,23.55
2022-12-15T11:57:37.750Z,15.13
2022-12-15T12:00:15.260Z,15.38
2022-12-15T12:03:01.526Z,23.83
2022-12-15T12:05:43.192Z,15.38
2022-12-15T12:08:51.139Z,21.95
2022-12-15T12:11:29.161Z,15.52
2022-12-15T12:14:13.572Z,17.13
2022-12-15T12:16:56.318Z,18.45
2022-12-15T12:19:34.835Z,21.35
2022-12-15T12:22:14.599Z,20.25
2022-12-15T12:24:52.542Z,18.00
2022-12-15T12:27:32.378Z,16.85
2022-12-15T12:30:11.440Z,17.10
2022-12-15T12:32:53.201Z,20.07
2022-12-15T12:35:35.221Z,19.05
2022-12-15T12:38:09.830Z,19.45
2022-12-15T12:40:52.715Z,32.25
2022-12-15T12:43:33.254Z,20.98
2022-12-15T12:46:13.985Z,17.88
2022-12-15T12:48:53.566Z,17.67
2022-12-15T12:51:29.680Z,18.80
2022-12-15T12:54:02.261Z,30.85
2022-12-15T12:56:39.301Z,30.27
2022-12-15T12:59:36.533Z,35.17
2022-12-15T13:02:53.668Z,29.73
2022-12-15T13:05:31.759Z,33.03
2022-12-15T13:08:49.187Z,35.58
2022-12-15T13:11:55.543Z,29.73
2022-12-15T13:14:48.228Z,31.92
2022-12-15T13:17:30.652Z,26.23
2022-12-15T13:20:22.456Z,20.53
2022-12-15T13:23:18.855Z,27.15
2022-12-15T13:26:11.181Z,21.77
2022-12-15T13:28:51.784Z,18.85
2022-12-15T13:31:38.213Z,19.77
2022-12-15T13:34:25.588Z,17.02
2022-12-15T13:36:59.922Z,28.25
2022-12-15T13:39:56.174Z,23.63
2022-12-15T13:42:37.010Z,29.90
2022-12-15T13:45:51.496Z,19.30
2022-12-15T13:51:13.248Z,20.40
2022-12-15T13:53:51.606Z,21.33
2022-12-15T13:56:47.526Z,19.05
2022-12-15T13:59:29.647Z,24.83
2022-12-15T14:02:01.710Z,33.70
2022-12-15T14:04:33.709Z,49.70
2022-12-15T14:07:06.568Z,50.72
2022-12-15T14:09:42.001Z,39.50
2022-12-15T14:12:15.412Z,53.38
2022-12-15T14:14:49.355Z,31.67
2022-12-15T14:17:22.069Z,27.13
2022-12-15T14:19:53.981Z,22.58
2022-12-15T14:22:29.709Z,19.95
2022-12-15T14:25:13.281Z,22.70
2022-12-15T14:27:50.560Z,22.85
2022-12-15T14:30:25.564Z,24.95
2022-12-15T14:33:01.793Z,22.75
2022-12-15T14:35:39.990Z,20.27
2022-12-15T14:38:15.905Z,17.13
2022-12-15T14:40:51.710Z,19.75
2022-12-15T14:43:29.854Z,25.58
2022-12-15T14:46:09.946Z,45.60
2022-12-15T14:48:45.313Z,34.97
2022-12-15T14:51:17.979Z,29.98
2022-12-15T14:53:53.244Z,30.83
2022-12-15T14:56:30.776Z,32.92
2022-12-15T14:59:18.847Z,29.17
2022-12-15T15:01:58.678Z,28.35
2022-12-15T15:03:06.889Z,16.15
2022-12-15T15:03:09.172Z,14.43
2022-12-15T15:04:32.797Z,28.33
2022-12-15T15:07:07.553Z,23.98
2022-12-15T15:09:40.615Z,28.38
2022-12-15T15:12:16.475Z,24.92
2022-12-15T15:14:53.980Z,25.00
2022-12-15T15:17:30.930Z,24.55
2022-12-15T15:20:07.036Z,22.13
2022-12-15T15:22:41.067Z,19.92
2022-12-15T15:25:39.979Z,21.25
2022-12-15T15:28:15.647Z,19.60
2022-12-15T15:30:50.670Z,56.88
2022-12-15T15:33:23.588Z,65.05
2022-12-15T15:35:57.542Z,38.10
2022-12-15T15:38:33.605Z,30.70
2022-12-15T15:41:16.677Z,33.63
2022-12-15T15:43:48.690Z,31.05
2022-12-15T15:46:25.546Z,30.95
2022-12-15T15:49:00.914Z,29.35
2022-12-15T15:51:33.675Z,28.88
2022-12-15T15:54:08.537Z,27.52
2022-12-15T15:56:41.605Z,30.77
2022-12-15T15:59:15.319Z,26.40
2022-12-15T16:01:54.161Z,24.70
2022-12-15T16:04:26.939Z,24.47
2022-12-15T16:06:58.995Z,24.75
2022-12-15T16:09:31.013Z,27.42
2022-12-15T16:12:02.965Z,28.02
2022-12-15T16:14:34.874Z,28.15
2022-12-15T16:17:09.979Z,31.20
2022-12-15T16:19:41.939Z,32.78
2022-12-15T16:22:16.819Z,33.00
2022-12-15T16:24:53.150Z,29.90
2022-12-15T16:27:25.439Z,27.40
2022-12-15T16:29:58.419Z,34.55
2022-12-15T16:32:31.776Z,32.20
2022-12-15T16:35:04.042Z,30.20
2022-12-15T16:37:39.597Z,27.67
2022-12-15T16:40:17.236Z,34.42
2022-12-15T16:42:54.024Z,33.20
2022-12-15T16:45:28.867Z,32.40
2022-12-15T16:48:02.185Z,35.58
2022-12-15T16:50:37.773Z,35.97
2022-12-15T16:53:15.658Z,32.70
2022-12-15T16:55:49.751Z,30.75
2022-12-15T16:58:22.640Z,29.63
2022-12-15T17:00:55.191Z,32.70
2022-12-15T17:03:28.826Z,30.17
2022-12-15T17:06:04.176Z,28.58
2022-12-15T17:08:40.211Z,32.25
2022-12-15T17:11:14.974Z,28.27
2022-12-15T17:13:51.242Z,28.67
2022-12-15T17:16:25.370Z,31.70
2022-12-15T17:18:58.742Z,27.83
2022-12-15T17:21:33.202Z,28.63
2022-12-15T17:24:08.188Z,28.67
2022-12-15T17:26:42.192Z,29.15
2022-12-15T17:29:17.000Z,29.65
2022-12-15T17:31:49.598Z,34.85
2022-12-15T17:34:27.507Z,34.63
2022-12-15T17:37:01.050Z,34.45
2022-12-15T17:39:34.353Z,35.13
2022-12-15T17:42:16.526Z,27.77
2022-12-15T17:44:49.225Z,29.83
2022-12-15T17:47:25.413Z,29.55
2022-12-15T17:49:58.758Z,27.80
2022-12-15T17:52:34.674Z,28.20
2022-12-15T17:55:21.283Z,27.95
2022-12-15T17:57:55.542Z,28.90
2022-12-15T18:00:29.274Z,27.85
2022-12-15T18:03:01.452Z,31.42
2022-12-15T18:05:34.916Z,29.08
2022-12-15T18:08:14.069Z,29.83
2022-12-15T18:10:47.445Z,21.73
2022-12-15T18:13:21.260Z,29.38
2022-12-15T18:15:54.364Z,26.38
2022-12-15T18:18:26.417Z,29.23
2022-12-15T18:21:02.697Z,27.60
2022-12-15T18:23:35.596Z,29.13
2022-12-15T18:26:09.180Z,33.53
2022-12-15T18:28:41.479Z,32.00
2022-12-15T18:31:19.959Z,29.20
2022-12-15T18:33:52.179Z,26.52
2022-12-15T18:36:27.349Z,28.48
2022-12-15T18:38:59.262Z,28.95
2022-12-15T18:41:31.174Z,29.27
2022-12-15T18:44:03.095Z,28.67
2022-12-15T18:46:35.145Z,28.02
2022-12-15T18:49:10.848Z,28.45
2022-12-15T18:51:45.484Z,28.85
2022-12-15T18:54:20.076Z,29.17
2022-12-15T18:56:52.154Z,28.35
2022-12-15T18:59:27.269Z,28.63
2022-12-15T19:01:59.330Z,31.27
2022-12-15T19:04:31.356Z,30.00
2022-12-15T19:07:06.644Z,30.38
2022-12-15T19:09:38.607Z,30.63
2022-12-15T19:12:20.312Z,28.73
2022-12-15T19:14:53.620Z,29.58
2022-12-15T19:17:45.811Z,29.15
2022-12-15T19:20:38.428Z,30.70
2022-12-15T19:23:12.418Z,29.50
2022-12-15T19:25:46.854Z,29.30
2022-12-15T19:28:20.929Z,29.33
2022-12-15T19:30:52.974Z,56.15
2022-12-15T19:33:25.165Z,44.17
2022-12-15T19:35:57.731Z,56.88
2022-12-15T19:38:32.897Z,28.63
2022-12-15T19:41:04.924Z,27.98
2022-12-15T19:43:37.420Z,32.20
2022-12-15T19:46:12.932Z,43.13
2022-12-15T19:48:45.517Z,32.60
2022-12-15T19:51:19.728Z,29.25
2022-12-15T19:53:53.158Z,34.15
2022-12-15T19:56:25.984Z,49.88
2022-12-15T19:58:58.168Z,27.33
2022-12-15T20:01:30.400Z,30.67
2022-12-15T20:04:02.448Z,29.88
2022-12-15T20:06:34.359Z,33.33
2022-12-15T20:09:13.624Z,30.08
2022-12-15T20:11:45.968Z,33.95
2022-12-15T20:14:18.144Z,29.52
2022-12-15T20:16:50.556Z,33.22
2022-12-15T20:19:22.726Z,29.33
2022-12-15T20:21:55.453Z,30.73
2022-12-15T20:24:30.883Z,30.30
2022-12-15T20:27:07.387Z,31.98
2022-12-15T20:29:42.385Z,39.53
2022-12-15T20:32:16.403Z,30.67
2022-12-15T20:34:48.461Z,31.25
2022-12-15T20:37:26.996Z,116.55
2022-12-15T20:40:00.331Z,78.72
2022-12-15T20:42:32.272Z,53.42
2022-12-15T20:45:05.273Z,34.15
2022-12-15T20:47:39.854Z,46.42
2022-12-15T20:50:24.113Z,44.58
2022-12-15T20:52:56.100Z,44.80
2022-12-15T20:55:30.048Z,39.38
2022-12-15T20:58:02.029Z,34.90
2022-12-15T21:00:34.008Z,44.03
2022-12-15T21:03:21.846Z,42.03
2022-12-15T21:05:56.005Z,46.13
2022-12-15T21:08:30.091Z,41.83
2022-12-15T21:11:14.251Z,37.33
2022-12-15T21:13:48.267Z,30.92
2022-12-15T21:16:22.399Z,30.98
2022-12-15T21:19:19.376Z,33.83
2022-12-15T21:21:48.429Z,33.22
2022-12-15T21:24:23.011Z,32.83
2022-12-15T21:26:56.535Z,34.88
2022-12-15T21:29:28.996Z,32.20
2022-12-15T21:32:00.934Z,35.03
2022-12-15T21:34:32.988Z,31.80
2022-12-15T21:37:06.636Z,35.05
2022-12-15T21:39:39.671Z,30.42
2022-12-15T21:42:15.964Z,31.27
2022-12-15T21:44:48.238Z,32.55
2022-12-15T21:47:25.354Z,30.42
2022-12-15T21:49:58.692Z,32.22
2022-12-15T21:52:30.658Z,30.23
2022-12-15T21:55:02.659Z,32.20
2022-12-15T21:57:35.964Z,30.85
2022-12-15T22:00:11.341Z,32.13
2022-12-15T22:02:44.085Z,29.05
2022-12-15T22:05:19.284Z,31.10
2022-12-15T22:07:51.734Z,30.90
2022-12-15T22:10:24.759Z,30.58
2022-12-15T22:12:59.971Z,31.10
2022-12-15T22:15:32.929Z,31.48
2022-12-15T22:18:05.472Z,28.00
2022-12-15T22:20:37.488Z,28.95
2022-12-15T22:23:09.495Z,32.92
2022-12-15T22:25:41.723Z,29.92
2022-12-15T22:28:21.722Z,31.17
2022-12-15T22:30:55.428Z,30.95
2022-12-15T22:33:28.414Z,31.75
2022-12-15T22:36:00.354Z,27.88
2022-12-15T22:38:32.538Z,30.98
2022-12-15T22:41:06.808Z,31.25
2022-12-15T22:43:41.626Z,30.83
2022-12-15T22:46:15.557Z,29.52
2022-12-15T22:48:48.230Z,31.33
2022-12-15T22:51:20.201Z,28.98
2022-12-15T22:53:52.167Z,30.40
2022-12-15T22:56:28.373Z,27.92
2022-12-15T22:59:05.384Z,31.45
2022-12-15T23:01:37.491Z,31.33
2022-12-15T23:04:09.619Z,29.75
2022-12-15T23:06:41.727Z,36.17
2022-12-15T23:09:13.672Z,30.83
2022-12-15T23:11:45.613Z,30.42
2022-12-15T23:14:19.094Z,27.08
2022-12-15T23:16:51.092Z,28.77
2022-12-15T23:19:25.848Z,27.38
2022-12-15T23:21:57.798Z,27.55
2022-12-15T23:24:31.298Z,28.83
2022-12-15T23:27:03.367Z,27.42
2022-12-15T23:29:37.530Z,29.70
2022-12-15T23:32:09.474Z,30.65
2022-12-15T23:34:41.391Z,29.80
2022-12-15T23:37:13.300Z,28.90
2022-12-15T23:39:45.302Z,31.23
2022-12-15T23:42:17.225Z,31.88
2022-12-15T23:44:50.609Z,32.22
2022-12-15T23:47:23.735Z,30.15
2022-12-15T23:49:55.666Z,29.38
2022-12-15T23:52:28.839Z,27.92
2022-12-15T23:55:00.854Z,31.60
2022-12-15T23:57:34.155Z,30.75
